sensor_id;sensor_type;location;lat;lon;timestamp;P1;durP1;ratioP1;P2;durP2;ratioP2
81382;SDS011;70834;37.534;-122.308;2023-11-18T00:01:40;10.27;;;6.40;;
81382;SDS011;70834;37.534;-122.308;2023-11-18T00:04:01;14.05;;;6.88;;
81382;SDS011;70834;37.534;-122.308;2023-11-18T00:06:23;8.65;;;6.88;;
81382;SDS011;70834;37.534;-122.308;2023-11-18T00:08:44;10.38;;;6.43;;
81382;SDS011;70834;37.534;-122.308;2023-11-18T00:11:05;12.18;;;5.90;;
81382;SDS011;70834;37.534;-122.308;2023-11-18T00:13:27;7.82;;;5.53;;
81382;SDS011;70834;37.534;-122.308;2023-11-18T00:15:49;10.50;;;6.50;;
81382;SDS011;70834;37.534;-122.308;2023-11-18T00:18:10;12.48;;;5.93;;
81382;SDS011;70834;37.534;-122.308;2023-11-18T00:20:32;8.65;;;5.47;;
81382;SDS011;70834;37.534;-122.308;2023-11-18T00:22:56;9.85;;;5.30;;
81382;SDS011;70834;37.534;-122.308;2023-11-18T00:25:19;8.02;;;5.03;;
81382;SDS011;70834;37.534;-122.308;2023-11-18T00:27:41;11.60;;;5.32;;
81382;SDS011;70834;37.534;-122.308;2023-11-18T00:30:06;8.25;;;5.20;;
81382;SDS011;70834;37.534;-122.308;2023-11-18T00:32:34;11.73;;;5.53;;
81382;SDS011;70834;37.534;-122.308;2023-11-18T00:34:55;10.68;;;5.45;;
81382;SDS011;70834;37.534;-122.308;2023-11-18T00:37:17;9.13;;;4.85;;
81382;SDS011;70834;37.534;-122.308;2023-11-18T00:39:38;10.02;;;5.45;;
81382;SDS011;70834;37.534;-122.308;2023-11-18T00:41:59;9.00;;;5.75;;
81382;SDS011;70834;37.534;-122.308;2023-11-18T00:44:21;13.48;;;6.57;;
81382;SDS011;70834;37.534;-122.308;2023-11-18T00:46:42;8.43;;;5.75;;
81382;SDS011;70834;37.534;-122.308;2023-11-18T00:49:04;8.52;;;6.10;;
81382;SDS011;70834;37.534;-122.308;2023-11-18T00:51:25;10.85;;;5.75;;
81382;SDS011;70834;37.534;-122.308;2023-11-18T00:53:47;9.82;;;5.78;;
81382;SDS011;70834;37.534;-122.308;2023-11-18T00:56:12;11.65;;;5.28;;
81382;SDS011;70834;37.534;-122.308;2023-11-18T00:58:38;8.88;;;5.50;;
81382;SDS011;70834;37.534;-122.308;2023-11-18T01:01:00;10.23;;;6.70;;
81382;SDS011;70834;37.534;-122.308;2023-11-18T01:03:21;14.32;;;6.90;;
81382;SDS011;70834;37.534;-122.308;2023-11-18T01:05:43;13.68;;;6.07;;
81382;SDS011;70834;37.534;-122.308;2023-11-18T01:08:04;13.60;;;6.05;;
81382;SDS011;70834;37.534;-122.308;2023-11-18T01:10:26;12.77;;;6.55;;
81382;SDS011;70834;37.534;-122.308;2023-11-18T01:12:47;12.40;;;6.57;;
81382;SDS011;70834;37.534;-122.308;2023-11-18T01:15:09;10.25;;;5.95;;
81382;SDS011;70834;37.534;-122.308;2023-11-18T01:17:34;8.82;;;5.90;;
81382;SDS011;70834;37.534;-122.308;2023-11-18T01:19:55;9.52;;;5.80;;
81382;SDS011;70834;37.534;-122.308;2023-11-18T01:22:17;12.68;;;5.57;;
81382;SDS011;70834;37.534;-122.308;2023-11-18T01:24:38;11.65;;;5.95;;
81382;SDS011;70834;37.534;-122.308;2023-11-18T01:27:00;9.27;;;5.93;;
81382;SDS011;70834;37.534;-122.308;2023-11-18T01:29:22;11.93;;;5.63;;
81382;SDS011;70834;37.534;-122.308;2023-11-18T01:31:44;10.60;;;5.75;;
81382;SDS011;70834;37.534;-122.308;2023-11-18T01:34:05;13.13;;;5.93;;
81382;SDS011;70834;37.534;-122.308;2023-11-18T01:36:27;9.38;;;5.53;;
81382;SDS011;70834;37.534;-122.308;2023-11-18T01:38:49;12.63;;;6.50;;
81382;SDS011;70834;37.534;-122.308;2023-11-18T01:41:11;11.63;;;7.25;;
81382;SDS011;70834;37.534;-122.308;2023-11-18T01:43:32;8.25;;;5.82;;
81382;SDS011;70834;37.534;-122.308;2023-11-18T01:45:54;13.00;;;6.82;;
81382;SDS011;70834;37.534;-122.308;2023-11-18T01:48:17;13.65;;;5.85;;
81382;SDS011;70834;37.534;-122.308;2023-11-18T01:50:40;10.30;;;5.05;;
81382;SDS011;70834;37.534;-122.308;2023-11-18T01:53:03;10.98;;;4.95;;
81382;SDS011;70834;37.534;-122.308;2023-11-18T01:55:26;16.17;;;6.07;;
81382;SDS011;70834;37.534;-122.308;2023-11-18T01:57:47;15.02;;;6.18;;
81382;SDS011;70834;37.534;-122.308;2023-11-18T02:00:11;11.73;;;6.30;;
81382;SDS011;70834;37.534;-122.308;2023-11-18T02:02:33;14.15;;;6.88;;
81382;SDS011;70834;37.534;-122.308;2023-11-18T02:04:58;12.43;;;7.25;;
81382;SDS011;70834;37.534;-122.308;2023-11-18T02:07:21;18.38;;;8.93;;
81382;SDS011;70834;37.534;-122.308;2023-11-18T02:09:44;12.70;;;6.78;;
81382;SDS011;70834;37.534;-122.308;2023-11-18T02:12:21;9.90;;;6.32;;
81382;SDS011;70834;37.534;-122.308;2023-11-18T02:14:55;13.40;;;6.45;;
81382;SDS011;70834;37.534;-122.308;2023-11-18T02:17:21;12.07;;;5.30;;
81382;SDS011;70834;37.534;-122.308;2023-11-18T02:19:46;9.65;;;6.25;;
81382;SDS011;70834;37.534;-122.308;2023-11-18T02:22:19;10.18;;;5.22;;
81382;SDS011;70834;37.534;-122.308;2023-11-18T02:24:42;10.88;;;5.72;;
81382;SDS011;70834;37.534;-122.308;2023-11-18T02:27:11;10.70;;;5.88;;
81382;SDS011;70834;37.534;-122.308;2023-11-18T02:29:39;11.40;;;5.70;;
81382;SDS011;70834;37.534;-122.308;2023-11-18T02:32:05;14.10;;;5.72;;
81382;SDS011;70834;37.534;-122.308;2023-11-18T02:37:37;11.60;;;5.38;;
81382;SDS011;70834;37.534;-122.308;2023-11-18T02:40:06;10.30;;;4.50;;
81382;SDS011;70834;37.534;-122.308;2023-11-18T02:42:35;10.23;;;5.40;;
81382;SDS011;70834;37.534;-122.308;2023-11-18T02:44:58;14.30;;;5.18;;
81382;SDS011;70834;37.534;-122.308;2023-11-18T02:47:20;11.60;;;5.72;;
81382;SDS011;70834;37.534;-122.308;2023-11-18T02:49:42;12.68;;;5.00;;
81382;SDS011;70834;37.534;-122.308;2023-11-18T02:52:04;9.35;;;5.82;;
81382;SDS011;70834;37.534;-122.308;2023-11-18T02:54:26;11.18;;;6.30;;
81382;SDS011;70834;37.534;-122.308;2023-11-18T02:56:48;9.57;;;5.57;;
81382;SDS011;70834;37.534;-122.308;2023-11-18T02:59:30;11.52;;;6.03;;
81382;SDS011;70834;37.534;-122.308;2023-11-18T03:01:53;10.02;;;5.78;;
81382;SDS011;70834;37.534;-122.308;2023-11-18T03:04:15;8.00;;;5.55;;
81382;SDS011;70834;37.534;-122.308;2023-11-18T03:06:39;8.23;;;5.63;;
81382;SDS011;70834;37.534;-122.308;2023-11-18T03:09:02;11.48;;;5.82;;
81382;SDS011;70834;37.534;-122.308;2023-11-18T03:11:27;9.98;;;6.22;;
81382;SDS011;70834;37.534;-122.308;2023-11-18T03:13:53;9.40;;;6.53;;
81382;SDS011;70834;37.534;-122.308;2023-11-18T03:16:16;12.73;;;6.32;;
81382;SDS011;70834;37.534;-122.308;2023-11-18T03:18:42;11.80;;;6.57;;
81382;SDS011;70834;37.534;-122.308;2023-11-18T03:21:04;11.45;;;6.68;;
81382;SDS011;70834;37.534;-122.308;2023-11-18T03:23:27;15.55;;;6.25;;
81382;SDS011;70834;37.534;-122.308;2023-11-18T03:25:49;13.32;;;6.70;;
81382;SDS011;70834;37.534;-122.308;2023-11-18T03:28:12;9.00;;;5.85;;
81382;SDS011;70834;37.534;-122.308;2023-11-18T03:30:35;9.88;;;5.88;;
81382;SDS011;70834;37.534;-122.308;2023-11-18T03:32:58;15.10;;;6.22;;
81382;SDS011;70834;37.534;-122.308;2023-11-18T03:35:19;12.68;;;6.63;;
81382;SDS011;70834;37.534;-122.308;2023-11-18T03:37:41;10.43;;;6.45;;
81382;SDS011;70834;37.534;-122.308;2023-11-18T03:40:03;11.52;;;6.65;;
81382;SDS011;70834;37.534;-122.308;2023-11-18T03:42:25;10.52;;;7.13;;
81382;SDS011;70834;37.534;-122.308;2023-11-18T03:44:49;10.13;;;7.00;;
81382;SDS011;70834;37.534;-122.308;2023-11-18T03:47:10;13.27;;;6.88;;
81382;SDS011;70834;37.534;-122.308;2023-11-18T03:49:32;12.30;;;6.32;;
81382;SDS011;70834;37.534;-122.308;2023-11-18T03:51:53;11.77;;;6.68;;
81382;SDS011;70834;37.534;-122.308;2023-11-18T03:54:15;10.23;;;6.82;;
81382;SDS011;70834;37.534;-122.308;2023-11-18T03:56:36;11.63;;;6.53;;
81382;SDS011;70834;37.534;-122.308;2023-11-18T03:58:58;13.57;;;7.00;;
81382;SDS011;70834;37.534;-122.308;2023-11-18T04:01:20;13.02;;;7.57;;
81382;SDS011;70834;37.534;-122.308;2023-11-18T04:03:47;10.77;;;6.82;;
81382;SDS011;70834;37.534;-122.308;2023-11-18T04:06:10;14.18;;;6.80;;
81382;SDS011;70834;37.534;-122.308;2023-11-18T04:08:36;13.80;;;6.93;;
81382;SDS011;70834;37.534;-122.308;2023-11-18T04:10:57;11.90;;;6.80;;
81382;SDS011;70834;37.534;-122.308;2023-11-18T04:13:19;17.05;;;7.97;;
81382;SDS011;70834;37.534;-122.308;2023-11-18T04:15:40;14.60;;;7.65;;
81382;SDS011;70834;37.534;-122.308;2023-11-18T04:18:02;13.73;;;8.13;;
81382;SDS011;70834;37.534;-122.308;2023-11-18T04:20:23;13.32;;;7.30;;
81382;SDS011;70834;37.534;-122.308;2023-11-18T04:22:45;10.60;;;7.53;;
81382;SDS011;70834;37.534;-122.308;2023-11-18T04:25:10;17.63;;;8.68;;
81382;SDS011;70834;37.534;-122.308;2023-11-18T04:27:32;12.75;;;7.70;;
81382;SDS011;70834;37.534;-122.308;2023-11-18T04:29:53;11.93;;;7.75;;
81382;SDS011;70834;37.534;-122.308;2023-11-18T04:32:15;12.30;;;6.15;;
81382;SDS011;70834;37.534;-122.308;2023-11-18T04:34:36;15.02;;;7.20;;
81382;SDS011;70834;37.534;-122.308;2023-11-18T04:36:58;19.63;;;9.57;;
81382;SDS011;70834;37.534;-122.308;2023-11-18T04:39:19;19.70;;;7.25;;
81382;SDS011;70834;37.534;-122.308;2023-11-18T04:41:42;13.30;;;7.38;;
81382;SDS011;70834;37.534;-122.308;2023-11-18T04:44:04;13.00;;;5.95;;
81382;SDS011;70834;37.534;-122.308;2023-11-18T04:46:25;13.52;;;5.38;;
81382;SDS011;70834;37.534;-122.308;2023-11-18T04:48:47;13.55;;;5.80;;
81382;SDS011;70834;37.534;-122.308;2023-11-18T04:51:08;9.85;;;3.72;;
81382;SDS011;70834;37.534;-122.308;2023-11-18T04:53:30;11.68;;;5.13;;
81382;SDS011;70834;37.534;-122.308;2023-11-18T04:55:52;9.23;;;4.18;;
81382;SDS011;70834;37.534;-122.308;2023-11-18T04:58:13;11.65;;;4.65;;
81382;SDS011;70834;37.534;-122.308;2023-11-18T05:00:36;11.88;;;4.43;;
81382;SDS011;70834;37.534;-122.308;2023-11-18T05:03:00;8.27;;;4.28;;
81382;SDS011;70834;37.534;-122.308;2023-11-18T05:05:23;12.70;;;5.35;;
81382;SDS011;70834;37.534;-122.308;2023-11-18T05:07:45;12.55;;;3.80;;
81382;SDS011;70834;37.534;-122.308;2023-11-18T05:10:06;6.60;;;3.85;;
81382;SDS011;70834;37.534;-122.308;2023-11-18T05:12:28;9.60;;;3.67;;
81382;SDS011;70834;37.534;-122.308;2023-11-18T05:14:50;8.88;;;4.28;;
81382;SDS011;70834;37.534;-122.308;2023-11-18T05:17:11;7.80;;;3.72;;
81382;SDS011;70834;37.534;-122.308;2023-11-18T05:19:32;10.85;;;4.22;;
81382;SDS011;70834;37.534;-122.308;2023-11-18T05:21:54;8.32;;;4.18;;
81382;SDS011;70834;37.534;-122.308;2023-11-18T05:24:15;9.65;;;4.25;;
81382;SDS011;70834;37.534;-122.308;2023-11-18T05:26:37;8.82;;;4.20;;
81382;SDS011;70834;37.534;-122.308;2023-11-18T05:29:00;9.18;;;4.50;;
81382;SDS011;70834;37.534;-122.308;2023-11-18T05:31:22;7.40;;;4.28;;
81382;SDS011;70834;37.534;-122.308;2023-11-18T05:33:44;9.07;;;5.53;;
81382;SDS011;70834;37.534;-122.308;2023-11-18T05:36:11;9.88;;;5.18;;
81382;SDS011;70834;37.534;-122.308;2023-11-18T05:38:33;12.70;;;6.40;;
81382;SDS011;70834;37.534;-122.308;2023-11-18T05:40:57;15.88;;;6.45;;
81382;SDS011;70834;37.534;-122.308;2023-11-18T05:43:22;12.77;;;7.22;;
81382;SDS011;70834;37.534;-122.308;2023-11-18T05:45:49;11.40;;;7.03;;
81382;SDS011;70834;37.534;-122.308;2023-11-18T05:48:29;8.85;;;5.88;;
81382;SDS011;70834;37.534;-122.308;2023-11-18T05:50:52;10.15;;;4.80;;
81382;SDS011;70834;37.534;-122.308;2023-11-18T05:53:13;13.68;;;5.78;;
81382;SDS011;70834;37.534;-122.308;2023-11-18T05:55:35;14.00;;;7.38;;
81382;SDS011;70834;37.534;-122.308;2023-11-18T05:57:56;14.07;;;6.45;;
81382;SDS011;70834;37.534;-122.308;2023-11-18T06:00:17;15.60;;;5.63;;
81382;SDS011;70834;37.534;-122.308;2023-11-18T06:02:39;9.70;;;5.15;;
81382;SDS011;70834;37.534;-122.308;2023-11-18T06:05:00;11.20;;;4.97;;
81382;SDS011;70834;37.534;-122.308;2023-11-18T06:07:24;8.98;;;4.40;;
81382;SDS011;70834;37.534;-122.308;2023-11-18T06:09:45;10.65;;;4.60;;
81382;SDS011;70834;37.534;-122.308;2023-11-18T06:12:07;11.75;;;6.00;;
81382;SDS011;70834;37.534;-122.308;2023-11-18T06:14:30;13.80;;;4.47;;
81382;SDS011;70834;37.534;-122.308;2023-11-18T06:16:51;11.25;;;4.57;;
81382;SDS011;70834;37.534;-122.308;2023-11-18T06:19:13;11.60;;;5.03;;
81382;SDS011;70834;37.534;-122.308;2023-11-18T06:21:35;8.38;;;4.22;;
81382;SDS011;70834;37.534;-122.308;2023-11-18T06:23:59;8.80;;;4.00;;
81382;SDS011;70834;37.534;-122.308;2023-11-18T06:26:21;11.02;;;4.13;;
81382;SDS011;70834;37.534;-122.308;2023-11-18T06:28:47;9.23;;;3.55;;
81382;SDS011;70834;37.534;-122.308;2023-11-18T06:31:12;14.07;;;4.15;;
81382;SDS011;70834;37.534;-122.308;2023-11-18T06:33:44;8.55;;;4.07;;
81382;SDS011;70834;37.534;-122.308;2023-11-18T06:36:08;9.98;;;4.13;;
81382;SDS011;70834;37.534;-122.308;2023-11-18T06:38:31;11.23;;;4.60;;
81382;SDS011;70834;37.534;-122.308;2023-11-18T06:40:54;9.32;;;3.88;;
81382;SDS011;70834;37.534;-122.308;2023-11-18T06:43:19;9.07;;;4.10;;
81382;SDS011;70834;37.534;-122.308;2023-11-18T06:45:44;10.02;;;3.88;;
81382;SDS011;70834;37.534;-122.308;2023-11-18T06:48:06;6.20;;;3.63;;
81382;SDS011;70834;37.534;-122.308;2023-11-18T06:50:28;13.07;;;3.90;;
81382;SDS011;70834;37.534;-122.308;2023-11-18T06:52:50;11.57;;;4.35;;
81382;SDS011;70834;37.534;-122.308;2023-11-18T06:55:11;11.27;;;3.80;;
81382;SDS011;70834;37.534;-122.308;2023-11-18T06:57:34;8.27;;;3.50;;
81382;SDS011;70834;37.534;-122.308;2023-11-18T06:59:56;11.70;;;3.97;;
81382;SDS011;70834;37.534;-122.308;2023-11-18T07:02:17;11.32;;;4.22;;
81382;SDS011;70834;37.534;-122.308;2023-11-18T07:04:41;7.78;;;3.92;;
81382;SDS011;70834;37.534;-122.308;2023-11-18T07:07:02;8.07;;;4.13;;
81382;SDS011;70834;37.534;-122.308;2023-11-18T07:09:24;9.82;;;4.30;;
81382;SDS011;70834;37.534;-122.308;2023-11-18T07:11:46;10.50;;;5.20;;
81382;SDS011;70834;37.534;-122.308;2023-11-18T07:14:08;8.30;;;5.53;;
81382;SDS011;70834;37.534;-122.308;2023-11-18T07:16:35;6.78;;;4.72;;
81382;SDS011;70834;37.534;-122.308;2023-11-18T07:18:58;8.82;;;5.35;;
81382;SDS011;70834;37.534;-122.308;2023-11-18T07:21:19;9.35;;;5.15;;
81382;SDS011;70834;37.534;-122.308;2023-11-18T07:23:41;11.57;;;5.68;;
81382;SDS011;70834;37.534;-122.308;2023-11-18T07:26:02;9.88;;;4.72;;
81382;SDS011;70834;37.534;-122.308;2023-11-18T07:28:24;9.70;;;4.18;;
81382;SDS011;70834;37.534;-122.308;2023-11-18T07:30:46;13.90;;;5.45;;
81382;SDS011;70834;37.534;-122.308;2023-11-18T07:33:07;9.20;;;4.72;;
81382;SDS011;70834;37.534;-122.308;2023-11-18T07:35:29;8.30;;;4.90;;
81382;SDS011;70834;37.534;-122.308;2023-11-18T07:37:50;11.48;;;5.95;;
81382;SDS011;70834;37.534;-122.308;2023-11-18T07:40:12;12.77;;;4.40;;
81382;SDS011;70834;37.534;-122.308;2023-11-18T07:42:35;13.80;;;4.85;;
81382;SDS011;70834;37.534;-122.308;2023-11-18T07:44:56;9.80;;;4.03;;
81382;SDS011;70834;37.534;-122.308;2023-11-18T07:47:18;8.85;;;4.07;;
81382;SDS011;70834;37.534;-122.308;2023-11-18T07:49:41;9.48;;;3.92;;
81382;SDS011;70834;37.534;-122.308;2023-11-18T07:52:03;12.23;;;4.70;;
81382;SDS011;70834;37.534;-122.308;2023-11-18T07:54:24;13.48;;;4.22;;
81382;SDS011;70834;37.534;-122.308;2023-11-18T07:56:46;7.97;;;3.55;;
81382;SDS011;70834;37.534;-122.308;2023-11-18T07:59:08;10.38;;;4.18;;
81382;SDS011;70834;37.534;-122.308;2023-11-18T08:01:29;9.48;;;3.38;;
81382;SDS011;70834;37.534;-122.308;2023-11-18T08:03:51;10.45;;;3.67;;
81382;SDS011;70834;37.534;-122.308;2023-11-18T08:06:13;8.90;;;3.80;;
81382;SDS011;70834;37.534;-122.308;2023-11-18T08:08:35;11.52;;;3.50;;
81382;SDS011;70834;37.534;-122.308;2023-11-18T08:10:59;14.85;;;3.63;;
81382;SDS011;70834;37.534;-122.308;2023-11-18T08:13:20;11.52;;;3.72;;
81382;SDS011;70834;37.534;-122.308;2023-11-18T08:15:42;9.63;;;2.65;;
81382;SDS011;70834;37.534;-122.308;2023-11-18T08:18:07;9.13;;;3.72;;
81382;SDS011;70834;37.534;-122.308;2023-11-18T08:20:32;7.65;;;2.45;;
81382;SDS011;70834;37.534;-122.308;2023-11-18T08:22:54;12.52;;;3.50;;
81382;SDS011;70834;37.534;-122.308;2023-11-18T08:25:15;12.32;;;3.03;;
81382;SDS011;70834;37.534;-122.308;2023-11-18T08:27:37;7.57;;;2.53;;
81382;SDS011;70834;37.534;-122.308;2023-11-18T08:30:00;8.18;;;2.40;;
81382;SDS011;70834;37.534;-122.308;2023-11-18T08:32:26;9.43;;;2.78;;
81382;SDS011;70834;37.534;-122.308;2023-11-18T08:34:50;11.80;;;3.88;;
81382;SDS011;70834;37.534;-122.308;2023-11-18T08:37:11;4.03;;;1.88;;
81382;SDS011;70834;37.534;-122.308;2023-11-18T08:39:34;8.52;;;2.85;;
81382;SDS011;70834;37.534;-122.308;2023-11-18T08:41:55;6.82;;;1.90;;
81382;SDS011;70834;37.534;-122.308;2023-11-18T08:44:17;8.35;;;2.83;;
81382;SDS011;70834;37.534;-122.308;2023-11-18T08:46:38;8.20;;;2.20;;
81382;SDS011;70834;37.534;-122.308;2023-11-18T08:49:00;8.68;;;2.33;;
81382;SDS011;70834;37.534;-122.308;2023-11-18T08:51:30;9.32;;;2.50;;
81382;SDS011;70834;37.534;-122.308;2023-11-18T08:53:54;5.25;;;1.90;;
81382;SDS011;70834;37.534;-122.308;2023-11-18T08:56:15;9.60;;;2.20;;
81382;SDS011;70834;37.534;-122.308;2023-11-18T08:58:36;7.93;;;1.75;;
81382;SDS011;70834;37.534;-122.308;2023-11-18T09:01:00;7.15;;;2.20;;
81382;SDS011;70834;37.534;-122.308;2023-11-18T09:03:33;6.65;;;1.98;;
81382;SDS011;70834;37.534;-122.308;2023-11-18T09:05:55;7.85;;;2.05;;
81382;SDS011;70834;37.534;-122.308;2023-11-18T09:08:18;7.57;;;2.17;;
81382;SDS011;70834;37.534;-122.308;2023-11-18T09:10:42;4.97;;;2.00;;
81382;SDS011;70834;37.534;-122.308;2023-11-18T09:13:03;6.90;;;2.17;;
81382;SDS011;70834;37.534;-122.308;2023-11-18T09:15:26;9.02;;;3.03;;
81382;SDS011;70834;37.534;-122.308;2023-11-18T09:17:51;8.93;;;2.35;;
81382;SDS011;70834;37.534;-122.308;2023-11-18T09:20:13;16.38;;;3.03;;
81382;SDS011;70834;37.534;-122.308;2023-11-18T09:22:38;9.88;;;2.30;;
81382;SDS011;70834;37.534;-122.308;2023-11-18T09:24:59;3.40;;;2.10;;
81382;SDS011;70834;37.534;-122.308;2023-11-18T09:27:21;9.90;;;2.70;;
81382;SDS011;70834;37.534;-122.308;2023-11-18T09:29:43;5.18;;;2.60;;
81382;SDS011;70834;37.534;-122.308;2023-11-18T09:32:05;6.97;;;2.38;;
81382;SDS011;70834;37.534;-122.308;2023-11-18T09:34:26;3.90;;;2.17;;
81382;SDS011;70834;37.534;-122.308;2023-11-18T09:36:53;6.80;;;2.53;;
81382;SDS011;70834;37.534;-122.308;2023-11-18T09:39:15;4.38;;;2.05;;
81382;SDS011;70834;37.534;-122.308;2023-11-18T09:41:49;3.00;;;2.20;;
81382;SDS011;70834;37.534;-122.308;2023-11-18T09:44:11;6.28;;;2.50;;
81382;SDS011;70834;37.534;-122.308;2023-11-18T09:46:33;7.13;;;2.47;;
81382;SDS011;70834;37.534;-122.308;2023-11-18T09:51:38;5.05;;;2.45;;
81382;SDS011;70834;37.534;-122.308;2023-11-18T09:54:04;7.15;;;2.33;;
81382;SDS011;70834;37.534;-122.308;2023-11-18T09:56:50;9.05;;;2.75;;
81382;SDS011;70834;37.534;-122.308;2023-11-18T09:59:32;6.25;;;2.17;;
81382;SDS011;70834;37.534;-122.308;2023-11-18T10:01:57;4.25;;;1.90;;
81382;SDS011;70834;37.534;-122.308;2023-11-18T10:04:20;9.93;;;2.88;;
81382;SDS011;70834;37.534;-122.308;2023-11-18T10:06:42;6.30;;;2.30;;
81382;SDS011;70834;37.534;-122.308;2023-11-18T10:09:08;6.30;;;2.13;;
81382;SDS011;70834;37.534;-122.308;2023-11-18T10:11:36;3.75;;;2.22;;
81382;SDS011;70834;37.534;-122.308;2023-11-18T10:13:57;5.38;;;2.28;;
81382;SDS011;70834;37.534;-122.308;2023-11-18T10:16:27;5.28;;;2.80;;
81382;SDS011;70834;37.534;-122.308;2023-11-18T10:18:51;6.45;;;2.90;;
81382;SDS011;70834;37.534;-122.308;2023-11-18T10:21:14;5.75;;;2.10;;
81382;SDS011;70834;37.534;-122.308;2023-11-18T10:23:38;8.50;;;2.20;;
81382;SDS011;70834;37.534;-122.308;2023-11-18T10:26:01;5.88;;;2.30;;
81382;SDS011;70834;37.534;-122.308;2023-11-18T10:28:27;4.55;;;2.15;;
81382;SDS011;70834;37.534;-122.308;2023-11-18T10:30:56;5.97;;;2.22;;
81382;SDS011;70834;37.534;-122.308;2023-11-18T10:33:18;3.35;;;2.20;;
81382;SDS011;70834;37.534;-122.308;2023-11-18T10:35:48;6.88;;;2.22;;
81382;SDS011;70834;37.534;-122.308;2023-11-18T10:38:15;7.35;;;2.25;;
81382;SDS011;70834;37.534;-122.308;2023-11-18T10:40:37;4.30;;;2.25;;
81382;SDS011;70834;37.534;-122.308;2023-11-18T10:42:59;5.78;;;2.30;;
81382;SDS011;70834;37.534;-122.308;2023-11-18T10:45:24;7.63;;;2.80;;
81382;SDS011;70834;37.534;-122.308;2023-11-18T10:47:47;4.45;;;2.17;;
81382;SDS011;70834;37.534;-122.308;2023-11-18T10:50:08;6.40;;;2.42;;
81382;SDS011;70834;37.534;-122.308;2023-11-18T10:52:30;6.20;;;2.40;;
81382;SDS011;70834;37.534;-122.308;2023-11-18T10:54:55;7.72;;;2.47;;
81382;SDS011;70834;37.534;-122.308;2023-11-18T10:57:16;5.85;;;2.30;;
81382;SDS011;70834;37.534;-122.308;2023-11-18T10:59:57;4.47;;;2.00;;
81382;SDS011;70834;37.534;-122.308;2023-11-18T11:02:20;5.32;;;2.40;;
81382;SDS011;70834;37.534;-122.308;2023-11-18T11:04:44;5.70;;;2.80;;
81382;SDS011;70834;37.534;-122.308;2023-11-18T11:07:05;5.72;;;1.95;;
81382;SDS011;70834;37.534;-122.308;2023-11-18T11:09:27;3.75;;;2.20;;
81382;SDS011;70834;37.534;-122.308;2023-11-18T11:11:49;11.27;;;2.80;;
81382;SDS011;70834;37.534;-122.308;2023-11-18T11:14:28;8.30;;;2.40;;
81382;SDS011;70834;37.534;-122.308;2023-11-18T11:16:57;9.85;;;2.50;;
81382;SDS011;70834;37.534;-122.308;2023-11-18T11:19:35;11.77;;;2.65;;
81382;SDS011;70834;37.534;-122.308;2023-11-18T11:22:17;10.10;;;2.53;;
81382;SDS011;70834;37.534;-122.308;2023-11-18T11:24:49;8.98;;;2.30;;
81382;SDS011;70834;37.534;-122.308;2023-11-18T11:27:25;10.93;;;2.88;;
81382;SDS011;70834;37.534;-122.308;2023-11-18T11:30:16;9.27;;;3.53;;
81382;SDS011;70834;37.534;-122.308;2023-11-18T11:32:52;8.15;;;2.70;;
81382;SDS011;70834;37.534;-122.308;2023-11-18T11:35:22;17.23;;;3.35;;
81382;SDS011;70834;37.534;-122.308;2023-11-18T11:37:47;7.80;;;2.58;;
81382;SDS011;70834;37.534;-122.308;2023-11-18T11:40:09;8.65;;;2.60;;
81382;SDS011;70834;37.534;-122.308;2023-11-18T11:42:32;10.95;;;2.67;;
81382;SDS011;70834;37.534;-122.308;2023-11-18T11:44:54;10.95;;;2.63;;
81382;SDS011;70834;37.534;-122.308;2023-11-18T11:47:18;13.02;;;3.10;;
81382;SDS011;70834;37.534;-122.308;2023-11-18T11:49:54;11.98;;;2.97;;
81382;SDS011;70834;37.534;-122.308;2023-11-18T11:52:31;8.23;;;3.17;;
81382;SDS011;70834;37.534;-122.308;2023-11-18T11:55:10;7.45;;;3.00;;
81382;SDS011;70834;37.534;-122.308;2023-11-18T11:57:39;11.85;;;3.47;;
81382;SDS011;70834;37.534;-122.308;2023-11-18T12:00:03;13.27;;;3.47;;
81382;SDS011;70834;37.534;-122.308;2023-11-18T12:02:35;12.25;;;3.30;;
81382;SDS011;70834;37.534;-122.308;2023-11-18T12:04:56;11.88;;;2.83;;
81382;SDS011;70834;37.534;-122.308;2023-11-18T12:07:27;8.23;;;2.70;;
81382;SDS011;70834;37.534;-122.308;2023-11-18T12:09:49;8.15;;;2.97;;
81382;SDS011;70834;37.534;-122.308;2023-11-18T12:12:17;15.80;;;3.70;;
81382;SDS011;70834;37.534;-122.308;2023-11-18T12:14:52;10.98;;;2.90;;
81382;SDS011;70834;37.534;-122.308;2023-11-18T12:20:41;6.72;;;2.92;;
81382;SDS011;70834;37.534;-122.308;2023-11-18T12:23:17;5.20;;;2.40;;
81382;SDS011;70834;37.534;-122.308;2023-11-18T12:25:41;4.97;;;2.40;;
81382;SDS011;70834;37.534;-122.308;2023-11-18T12:28:10;7.95;;;2.22;;
81382;SDS011;70834;37.534;-122.308;2023-11-18T12:32:59;7.45;;;2.00;;
81382;SDS011;70834;37.534;-122.308;2023-11-18T12:35:26;7.80;;;2.30;;
81382;SDS011;70834;37.534;-122.308;2023-11-18T12:43:14;8.90;;;3.03;;
81382;SDS011;70834;37.534;-122.308;2023-11-18T12:45:41;7.25;;;2.03;;
81382;SDS011;70834;37.534;-122.308;2023-11-18T12:48:14;7.28;;;2.35;;
81382;SDS011;70834;37.534;-122.308;2023-11-18T12:50:35;8.27;;;2.08;;
81382;SDS011;70834;37.534;-122.308;2023-11-18T12:52:57;6.88;;;2.13;;
81382;SDS011;70834;37.534;-122.308;2023-11-18T12:55:19;7.88;;;2.38;;
81382;SDS011;70834;37.534;-122.308;2023-11-18T12:57:45;9.15;;;2.28;;
81382;SDS011;70834;37.534;-122.308;2023-11-18T13:00:08;5.00;;;2.22;;
81382;SDS011;70834;37.534;-122.308;2023-11-18T13:02:31;6.20;;;2.47;;
81382;SDS011;70834;37.534;-122.308;2023-11-18T13:04:53;6.32;;;1.92;;
81382;SDS011;70834;37.534;-122.308;2023-11-18T13:07:14;2.80;;;1.70;;
81382;SDS011;70834;37.534;-122.308;2023-11-18T13:09:37;6.75;;;1.70;;
81382;SDS011;70834;37.534;-122.308;2023-11-18T13:12:02;3.80;;;2.15;;
81382;SDS011;70834;37.534;-122.308;2023-11-18T13:14:29;6.35;;;1.80;;
81382;SDS011;70834;37.534;-122.308;2023-11-18T13:16:56;6.13;;;1.75;;
81382;SDS011;70834;37.534;-122.308;2023-11-18T13:19:27;4.90;;;1.52;;
81382;SDS011;70834;37.534;-122.308;2023-11-18T13:21:50;3.65;;;1.70;;
81382;SDS011;70834;37.534;-122.308;2023-11-18T13:24:11;6.82;;;1.60;;
81382;SDS011;70834;37.534;-122.308;2023-11-18T13:26:32;5.65;;;1.88;;
81382;SDS011;70834;37.534;-122.308;2023-11-18T13:28:54;6.28;;;1.73;;
81382;SDS011;70834;37.534;-122.308;2023-11-18T13:31:16;6.32;;;1.60;;
81382;SDS011;70834;37.534;-122.308;2023-11-18T13:33:41;3.58;;;1.60;;
81382;SDS011;70834;37.534;-122.308;2023-11-18T13:36:09;4.47;;;1.38;;
81382;SDS011;70834;37.534;-122.308;2023-11-18T13:38:31;8.20;;;1.52;;
81382;SDS011;70834;37.534;-122.308;2023-11-18T13:40:53;4.90;;;1.73;;
81382;SDS011;70834;37.534;-122.308;2023-11-18T13:43:14;5.30;;;1.58;;
81382;SDS011;70834;37.534;-122.308;2023-11-18T13:45:36;3.67;;;1.48;;
81382;SDS011;70834;37.534;-122.308;2023-11-18T13:47:59;4.72;;;1.98;;
81382;SDS011;70834;37.534;-122.308;2023-11-18T13:50:21;7.25;;;1.80;;
81382;SDS011;70834;37.534;-122.308;2023-11-18T13:52:43;3.33;;;1.50;;
81382;SDS011;70834;37.534;-122.308;2023-11-18T13:55:06;5.60;;;1.60;;
81382;SDS011;70834;37.534;-122.308;2023-11-18T13:57:28;3.83;;;1.60;;
81382;SDS011;70834;37.534;-122.308;2023-11-18T13:59:51;4.10;;;1.80;;
81382;SDS011;70834;37.534;-122.308;2023-11-18T14:02:14;4.45;;;1.80;;